createdAt,value
2023-04-28T00:04:05.361Z,4.28
2023-04-28T00:09:11.574Z,5.47
2023-04-28T00:14:15.783Z,5.85
2023-04-28T00:19:21.756Z,4.10
2023-04-28T00:24:25.636Z,4.45
2023-04-28T00:29:30.385Z,4.70
2023-04-28T00:34:37.763Z,4.43
2023-04-28T00:39:42.159Z,4.70
2023-04-28T00:44:45.782Z,4.40
2023-04-28T00:49:51.033Z,5.10
2023-04-28T00:54:54.376Z,4.45
2023-04-28T00:59:58.103Z,4.68
2023-04-28T01:05:03.569Z,5.38
2023-04-28T01:10:08.483Z,5.00
2023-04-28T01:15:18.133Z,5.55
2023-04-28T01:20:23.923Z,5.03
2023-04-28T01:25:29.160Z,5.45
2023-04-28T01:30:32.850Z,4.70
2023-04-28T01:35:36.737Z,5.28
2023-04-28T01:40:41.510Z,5.38
2023-04-28T01:45:45.108Z,5.85
2023-04-28T01:50:48.762Z,5.57
2023-04-28T01:55:53.685Z,5.07
2023-04-28T02:00:57.830Z,5.43
2023-04-28T02:06:02.346Z,5.97
2023-04-28T02:11:07.215Z,5.00
2023-04-28T02:16:10.886Z,5.60
2023-04-28T02:21:14.716Z,5.68
2023-04-28T02:26:19.638Z,5.07
2023-04-28T02:31:23.350Z,7.03
2023-04-28T02:36:28.195Z,5.90
2023-04-28T02:41:34.986Z,5.90
2023-04-28T02:46:38.756Z,6.85
2023-04-28T02:51:42.554Z,7.03
2023-04-28T02:56:47.630Z,6.72
2023-04-28T03:01:52.125Z,7.07
2023-04-28T03:06:56.090Z,7.00
2023-04-28T03:12:01.061Z,7.15
2023-04-28T03:17:04.641Z,7.77
2023-04-28T03:22:08.504Z,6.40
2023-04-28T03:27:13.327Z,6.63
2023-04-28T03:32:16.898Z,7.00
2023-04-28T03:37:20.245Z,7.53
2023-04-28T03:42:24.976Z,7.70
2023-04-28T03:47:44.351Z,7.57
2023-04-28T03:52:47.680Z,8.23
2023-04-28T03:57:52.559Z,8.05
2023-04-28T04:02:55.897Z,8.18
2023-04-28T04:07:59.365Z,7.85
2023-04-28T04:13:04.012Z,8.02
2023-04-28T04:18:07.415Z,7.32
2023-04-28T04:23:30.639Z,8.65
2023-04-28T04:28:35.838Z,8.07
2023-04-28T04:33:41.435Z,8.20
2023-04-28T04:38:46.683Z,7.50
2023-04-28T04:43:55.431Z,8.00
2023-04-28T04:49:05.476Z,7.40
2023-04-28T04:54:09.249Z,9.05
2023-04-28T04:59:16.261Z,8.60
2023-04-28T05:04:31.012Z,7.45
2023-04-28T05:09:34.837Z,8.52
2023-04-28T05:14:40.058Z,8.50
2023-04-28T05:19:44.277Z,6.65
2023-04-28T05:24:48.072Z,7.45
2023-04-28T05:29:53.763Z,7.63
2023-04-28T05:34:57.643Z,8.35
2023-04-28T05:40:01.579Z,7.97
2023-04-28T05:45:09.274Z,7.73
2023-04-28T05:50:13.043Z,8.32
2023-04-28T05:55:16.813Z,7.57
2023-04-28T06:00:22.196Z,7.43
2023-04-28T06:05:28.835Z,7.65
2023-04-28T06:10:33.046Z,7.43
2023-04-28T06:15:38.045Z,7.63
2023-04-28T06:20:41.872Z,8.17
2023-04-28T06:25:46.445Z,8.07
2023-04-28T06:30:51.636Z,7.50
2023-04-28T06:35:55.765Z,7.50
2023-04-28T06:40:59.603Z,6.28
2023-04-28T06:46:04.776Z,7.00
2023-04-28T06:51:08.684Z,9.35
2023-04-28T06:56:12.592Z,7.55
2023-04-28T07:01:17.952Z,6.63
2023-04-28T07:06:21.671Z,6.68
2023-04-28T07:11:24.989Z,6.93
2023-04-28T07:16:30.174Z,6.72
2023-04-28T07:21:34.943Z,6.78
2023-04-28T07:26:38.572Z,7.17
2023-04-28T07:31:43.572Z,6.55
2023-04-28T07:36:47.669Z,6.70
2023-04-28T07:41:51.425Z,7.22
2023-04-28T07:46:56.790Z,7.45
2023-04-28T07:57:06.591Z,6.15
2023-04-28T08:02:13.982Z,6.82
2023-04-28T08:07:17.970Z,8.35
2023-04-28T08:12:22.375Z,6.15
2023-04-28T08:17:27.384Z,6.07
2023-04-28T08:22:31.139Z,6.43
2023-04-28T08:27:34.942Z,5.25
2023-04-28T08:32:40.099Z,4.68
2023-04-28T08:37:44.060Z,4.88
2023-04-28T08:42:48.321Z,4.22
2023-04-28T08:47:55.001Z,4.90
2023-04-28T08:52:58.919Z,4.57
2023-04-28T08:58:04.432Z,5.03
2023-04-28T09:03:09.257Z,5.10
2023-04-28T09:08:13.299Z,5.60
2023-04-28T09:13:27.153Z,5.88
2023-04-28T09:18:33.468Z,5.90
2023-04-28T09:23:47.723Z,5.15
2023-04-28T09:28:51.477Z,5.20
2023-04-28T09:34:03.096Z,5.35
2023-04-28T09:39:06.841Z,5.63
2023-04-28T09:44:15.729Z,6.03
2023-04-28T09:49:21.104Z,6.03
2023-04-28T09:54:27.027Z,6.57
2023-04-28T09:59:31.103Z,5.72
2023-04-28T10:04:37.375Z,6.38
2023-04-28T10:09:44.337Z,6.28
2023-04-28T10:14:50.531Z,5.45
2023-04-28T10:19:56.489Z,6.40
2023-04-28T10:25:27.801Z,6.88
2023-04-28T10:30:31.690Z,6.55
2023-04-28T10:35:47.873Z,6.45
2023-04-28T10:40:52.663Z,7.00
2023-04-28T10:46:07.248Z,6.43
2023-04-28T10:51:41.992Z,6.57
2023-04-28T10:57:15.948Z,5.80
2023-04-28T11:02:44.459Z,6.68
2023-04-28T11:08:31.699Z,6.65
2023-04-28T11:13:36.746Z,7.00
2023-04-28T11:18:55.237Z,6.95
2023-04-28T11:24:00.817Z,5.55
2023-04-28T11:29:06.439Z,5.38
2023-04-28T11:34:15.066Z,6.30
2023-04-28T11:39:18.738Z,5.60
2023-04-28T11:44:25.092Z,7.10
2023-04-28T11:49:30.569Z,6.45
2023-04-28T11:54:34.663Z,6.75
2023-04-28T11:59:40.781Z,5.40
2023-04-28T12:04:46.672Z,5.90
2023-04-28T12:10:10.828Z,5.90
2023-04-28T12:15:16.739Z,6.20
2023-04-28T12:20:38.502Z,5.30
2023-04-28T12:25:46.385Z,5.60
2023-04-28T12:30:51.504Z,5.47
2023-04-28T12:35:55.568Z,5.25
2023-04-28T12:40:59.561Z,5.50
2023-04-28T12:46:05.383Z,4.85
2023-04-28T12:51:09.298Z,5.97
2023-04-28T12:56:12.985Z,5.13
2023-04-28T13:01:18.102Z,6.20
2023-04-28T13:06:21.886Z,5.28
2023-04-28T13:11:27.556Z,5.70
2023-04-28T13:16:32.627Z,4.93
2023-04-28T13:21:38.395Z,5.18
2023-04-28T13:26:44.654Z,5.07
2023-04-28T13:31:49.848Z,5.05
2023-04-28T13:41:58.326Z,4.35
2023-04-28T13:47:03.793Z,4.25
2023-04-28T13:52:07.509Z,4.22
2023-04-28T13:57:13.806Z,3.67
2023-04-28T14:02:19.471Z,4.30
2023-04-28T14:07:23.013Z,3.10
2023-04-28T14:12:27.210Z,3.50
2023-04-28T14:17:33.001Z,3.38
2023-04-28T14:22:36.690Z,3.20
2023-04-28T14:27:40.435Z,3.70
2023-04-28T14:32:46.121Z,3.53
2023-04-28T14:37:50.248Z,4.28
2023-04-28T14:42:54.172Z,3.90
2023-04-28T14:47:59.174Z,3.38
2023-04-28T14:58:09.012Z,4.07
2023-04-28T15:03:14.579Z,4.18
2023-04-28T15:13:22.538Z,4.20
2023-04-28T15:18:28.156Z,4.57
2023-04-28T15:23:31.906Z,4.60
2023-04-28T15:28:36.027Z,5.80
2023-04-28T15:33:41.163Z,5.70
2023-04-28T15:38:45.747Z,5.38
2023-04-28T15:43:51.045Z,4.10
2023-04-28T15:54:00.829Z,5.13
2023-04-28T15:59:04.857Z,4.45
2023-04-28T16:04:09.571Z,3.95
2023-04-28T16:09:13.132Z,4.70
2023-04-28T16:14:16.738Z,4.07
2023-04-28T16:19:21.728Z,3.85
2023-04-28T16:24:25.958Z,4.25
2023-04-28T16:29:29.189Z,3.63
2023-04-28T16:34:34.172Z,3.50
2023-04-28T16:39:37.429Z,4.53
2023-04-28T16:44:40.666Z,3.55
2023-04-28T16:49:45.264Z,4.00
2023-04-28T16:54:48.546Z,5.03
2023-04-28T16:59:52.211Z,5.03
2023-04-28T17:04:56.977Z,5.28
2023-04-28T17:10:01.186Z,5.23
2023-04-28T17:15:05.340Z,6.00
2023-04-28T17:20:11.835Z,5.32
2023-04-28T17:25:16.548Z,5.40
2023-04-28T17:30:19.850Z,5.30
2023-04-28T17:35:25.064Z,5.45
2023-04-28T17:40:28.340Z,5.88
2023-04-28T17:45:31.673Z,6.60
2023-04-28T17:50:36.654Z,5.32
2023-04-28T17:55:39.887Z,5.68
2023-04-28T18:00:43.284Z,5.85
2023-04-28T18:05:47.918Z,6.10
2023-04-28T18:10:51.221Z,6.53
2023-04-28T18:15:54.501Z,7.47
2023-04-28T18:21:00.320Z,6.80
2023-04-28T18:26:03.658Z,6.25
2023-04-28T18:31:07.174Z,6.07
2023-04-28T18:36:11.816Z,6.38
2023-04-28T18:41:16.161Z,6.60
2023-04-28T18:46:20.012Z,7.23
2023-04-28T18:51:24.689Z,6.78
2023-04-28T18:56:28.027Z,7.70
2023-04-28T19:01:31.513Z,7.28
2023-04-28T19:06:36.610Z,7.38
2023-04-28T19:11:40.311Z,6.72
2023-04-28T19:16:43.565Z,7.50
2023-04-28T19:21:50.038Z,7.53
2023-04-28T19:26:53.946Z,8.30
2023-04-28T19:31:58.629Z,7.72
2023-04-28T19:37:03.349Z,7.28
2023-04-28T19:42:06.973Z,7.90
2023-04-28T19:47:12.406Z,7.78
2023-04-28T19:52:17.043Z,8.07
2023-04-28T19:57:20.909Z,7.50
2023-04-28T20:02:24.757Z,8.55
2023-04-28T20:07:29.643Z,8.02
2023-04-28T20:12:33.231Z,8.50
2023-04-28T20:17:36.612Z,8.85
2023-04-28T20:22:41.888Z,8.48
2023-04-28T20:27:46.878Z,8.60
2023-04-28T20:32:50.906Z,8.90
2023-04-28T20:37:55.717Z,7.72
2023-04-28T20:43:01.676Z,8.43
2023-04-28T20:48:05.156Z,9.50
2023-04-28T20:53:10.035Z,8.85
2023-04-28T20:58:13.305Z,8.70
2023-04-28T21:03:16.769Z,8.80
2023-04-28T21:08:21.605Z,9.20
2023-04-28T21:13:25.006Z,8.90
2023-04-28T21:18:28.191Z,8.25
2023-04-28T21:23:32.852Z,8.55
2023-04-28T21:28:37.091Z,9.80
2023-04-28T21:33:40.817Z,9.98
2023-04-28T21:38:45.840Z,9.88
2023-04-28T21:43:49.518Z,10.82
2023-04-28T21:48:53.253Z,10.50
2023-04-28T21:53:57.927Z,10.05
2023-04-28T21:59:01.695Z,10.98
2023-04-28T22:04:08.731Z,9.88
2023-04-28T22:09:14.081Z,9.63
2023-04-28T22:14:35.005Z,10.38
2023-04-28T22:19:41.235Z,10.60
2023-04-28T22:24:46.103Z,10.77
2023-04-28T22:29:50.037Z,9.83
2023-04-28T22:34:53.750Z,11.27
2023-04-28T22:39:58.373Z,10.27
2023-04-28T22:45:03.541Z,10.48
2023-04-28T22:50:08.467Z,9.68
2023-04-28T22:55:14.681Z,10.35
2023-04-28T23:00:18.391Z,9.50
2023-04-28T23:05:21.952Z,10.60
2023-04-28T23:10:27.278Z,9.75
2023-04-28T23:15:31.420Z,9.63
2023-04-28T23:20:35.485Z,9.32
2023-04-28T23:25:43.204Z,9.20
2023-04-28T23:30:46.927Z,10.68
2023-04-28T23:35:50.552Z,9.80
2023-04-28T23:40:55.814Z,10.07
2023-04-28T23:45:59.550Z,10.15
2023-04-28T23:51:03.221Z,9.77
2023-04-28T23:56:08.911Z,10.63
